createdAt,value
2017-08-16T00:00:35.475Z,0
2017-08-16T00:01:15.500Z,0
2017-08-16T00:01:55.996Z,0
2017-08-16T00:02:36.259Z,0
2017-08-16T00:03:16.762Z,0
2017-08-16T00:03:57.099Z,0
2017-08-16T00:04:42.029Z,0
2017-08-16T00:05:22.450Z,0
2017-08-16T00:06:02.892Z,0
2017-08-16T00:06:44.952Z,0
2017-08-16T00:07:25.410Z,0
2017-08-16T00:08:05.947Z,0
2017-08-16T00:08:48.134Z,0
2017-08-16T00:09:28.845Z,0
2017-08-16T00:10:23.943Z,0
2017-08-16T00:11:04.352Z,0
2017-08-16T00:11:44.798Z,0
2017-08-16T00:12:25.178Z,0
2017-08-16T00:13:05.597Z,0
2017-08-16T00:13:45.958Z,0
2017-08-16T00:14:28.715Z,0
2017-08-16T00:15:09.294Z,0
2017-08-16T00:15:49.973Z,0
2017-08-16T00:16:30.911Z,0
2017-08-16T00:17:11.685Z,0
2017-08-16T00:17:51.872Z,0
2017-08-16T00:18:32.645Z,0
2017-08-16T00:19:13.040Z,0
2017-08-16T00:19:53.855Z,0
2017-08-16T00:20:34.251Z,0
2017-08-16T00:21:14.971Z,0
2017-08-16T00:21:55.391Z,0
2017-08-16T00:22:35.817Z,0
2017-08-16T00:23:16.309Z,0
2017-08-16T00:23:56.696Z,0
2017-08-16T00:24:37.098Z,0
2017-08-16T00:25:17.655Z,0
2017-08-16T00:25:57.938Z,0
2017-08-16T00:26:39.811Z,0
2017-08-16T00:27:20.389Z,0
2017-08-16T00:28:00.865Z,0
2017-08-16T00:28:41.324Z,0
2017-08-16T00:29:22.220Z,0
2017-08-16T00:30:02.769Z,0
2017-08-16T00:30:43.345Z,0
2017-08-16T00:31:23.622Z,0
2017-08-16T00:32:04.191Z,0
2017-08-16T00:32:44.473Z,0
2017-08-16T00:33:24.916Z,0
2017-08-16T00:34:05.265Z,0
2017-08-16T00:34:45.764Z,0
2017-08-16T00:35:26.127Z,0
2017-08-16T00:36:06.625Z,0
2017-08-16T00:36:46.946Z,0
2017-08-16T00:37:27.465Z,0
2017-08-16T00:38:07.922Z,0
2017-08-16T00:38:48.386Z,0
2017-08-16T00:39:28.677Z,0
2017-08-16T00:40:09.135Z,0
2017-08-16T00:40:49.636Z,0
2017-08-16T00:41:30.056Z,0
2017-08-16T00:42:10.419Z,0
2017-08-16T00:42:50.930Z,0
2017-08-16T00:43:31.300Z,0
2017-08-16T00:44:11.782Z,0
2017-08-16T00:44:52.125Z,0
2017-08-16T00:45:32.495Z,0
2017-08-16T00:46:12.909Z,0
2017-08-16T00:46:53.956Z,0
2017-08-16T00:47:34.349Z,0
2017-08-16T00:48:14.739Z,0
2017-08-16T00:48:55.476Z,0
2017-08-16T00:49:37.081Z,0
2017-08-16T00:50:17.485Z,0
2017-08-16T00:50:58.289Z,0
2017-08-16T00:51:38.427Z,0
2017-08-16T00:52:19.174Z,0
2017-08-16T00:52:59.335Z,0
2017-08-16T00:53:39.727Z,0
2017-08-16T00:54:20.186Z,0
2017-08-16T00:55:00.663Z,0
2017-08-16T00:55:41.652Z,0
2017-08-16T00:56:22.227Z,0
2017-08-16T00:57:02.696Z,0
2017-08-16T00:57:43.230Z,0
2017-08-16T00:58:23.674Z,0
2017-08-16T00:59:04.043Z,0
2017-08-16T00:59:44.468Z,0
2017-08-16T01:00:24.879Z,0
2017-08-16T01:01:05.298Z,0
2017-08-16T01:01:45.926Z,0
2017-08-16T01:02:26.181Z,0
2017-08-16T01:03:06.597Z,0
2017-08-16T01:03:46.912Z,0
2017-08-16T01:04:27.396Z,0
2017-08-16T01:05:07.923Z,0
2017-08-16T01:05:48.207Z,0
2017-08-16T01:06:28.679Z,0
2017-08-16T01:07:09.207Z,0
2017-08-16T01:07:49.596Z,0
2017-08-16T01:08:30.100Z,0
2017-08-16T01:09:10.610Z,0
2017-08-16T01:09:51.850Z,0
2017-08-16T01:10:32.297Z,0
2017-08-16T01:11:12.705Z,0
2017-08-16T01:11:53.126Z,0
2017-08-16T01:12:33.526Z,0
2017-08-16T01:13:14.419Z,0
2017-08-16T01:13:54.886Z,0
2017-08-16T01:14:35.308Z,0
2017-08-16T01:15:15.693Z,0
2017-08-16T01:15:56.075Z,0
2017-08-16T01:16:36.513Z,0
2017-08-16T01:17:16.980Z,0
2017-08-16T01:17:57.303Z,0
2017-08-16T01:18:37.793Z,0
2017-08-16T01:19:18.158Z,0
2017-08-16T01:19:58.578Z,0
2017-08-16T01:20:39.091Z,0
2017-08-16T01:21:19.520Z,0
2017-08-16T01:21:59.853Z,0
2017-08-16T01:22:40.323Z,0
2017-08-16T01:23:20.697Z,0
2017-08-16T01:24:01.030Z,0
2017-08-16T01:24:41.514Z,0
2017-08-16T01:25:21.940Z,0
2017-08-16T01:26:02.311Z,0
2017-08-16T01:26:42.699Z,0
2017-08-16T01:27:23.134Z,0
2017-08-16T01:28:03.496Z,0
2017-08-16T01:28:44.540Z,0
2017-08-16T01:29:25.790Z,0
2017-08-16T01:30:06.132Z,0
2017-08-16T01:30:46.526Z,0
2017-08-16T01:31:26.991Z,0
2017-08-16T01:32:07.907Z,0
2017-08-16T01:32:48.396Z,0
2017-08-16T01:33:31.468Z,0
2017-08-16T01:34:11.659Z,0
2017-08-16T01:34:52.153Z,0
2017-08-16T01:35:33.141Z,0
2017-08-16T01:36:13.563Z,0
2017-08-16T01:36:53.972Z,0
2017-08-16T01:37:34.840Z,0
2017-08-16T01:38:15.313Z,0
2017-08-16T01:38:56.113Z,0
2017-08-16T01:39:36.502Z,0
2017-08-16T01:40:16.936Z,0
2017-08-16T01:40:57.392Z,0
2017-08-16T01:41:37.754Z,0
2017-08-16T01:42:18.210Z,0
2017-08-16T01:42:58.554Z,0
2017-08-16T01:43:39.004Z,0
2017-08-16T01:44:19.400Z,0
2017-08-16T01:44:59.894Z,0
2017-08-16T01:45:40.283Z,0
2017-08-16T01:46:20.714Z,0
2017-08-16T01:47:01.081Z,0
2017-08-16T01:47:41.538Z,0
2017-08-16T01:48:21.936Z,0
2017-08-16T01:49:02.363Z,0
2017-08-16T01:49:42.772Z,0
2017-08-16T01:50:23.165Z,0
2017-08-16T01:51:03.506Z,0
2017-08-16T01:51:44.040Z,0
2017-08-16T01:52:24.599Z,0
2017-08-16T01:53:04.912Z,0
2017-08-16T01:53:45.323Z,0
2017-08-16T01:54:25.736Z,0
2017-08-16T01:55:06.062Z,0
2017-08-16T01:55:46.493Z,0
2017-08-16T01:56:26.912Z,0
2017-08-16T01:57:07.346Z,0
2017-08-16T01:57:47.829Z,0
2017-08-16T01:58:28.200Z,0
2017-08-16T01:59:08.641Z,0
2017-08-16T01:59:49.035Z,0
2017-08-16T02:00:29.498Z,0
2017-08-16T02:01:09.926Z,0
2017-08-16T02:01:50.267Z,0
2017-08-16T02:02:30.794Z,0
2017-08-16T02:03:11.140Z,0
2017-08-16T02:03:51.510Z,0
2017-08-16T02:04:31.961Z,0
2017-08-16T02:05:12.326Z,0
2017-08-16T02:05:52.778Z,0
2017-08-16T02:06:33.222Z,0
2017-08-16T02:07:13.519Z,0
2017-08-16T02:07:53.907Z,0
2017-08-16T02:08:34.312Z,0
2017-08-16T02:09:14.731Z,0
2017-08-16T02:09:55.193Z,0
2017-08-16T02:10:35.533Z,0
2017-08-16T02:11:16.191Z,0
2017-08-16T02:11:56.565Z,0
2017-08-16T02:12:37.035Z,0
2017-08-16T02:13:17.437Z,0
2017-08-16T02:13:57.871Z,0
2017-08-16T02:14:38.290Z,0
2017-08-16T02:15:18.686Z,0
2017-08-16T02:15:59.050Z,0
2017-08-16T02:16:39.486Z,0
2017-08-16T02:17:20.848Z,0
2017-08-16T02:18:01.208Z,0
2017-08-16T02:18:42.096Z,0
2017-08-16T02:19:22.561Z,0
2017-08-16T02:20:03.211Z,0
2017-08-16T02:20:43.818Z,0
2017-08-16T02:21:24.546Z,0
2017-08-16T02:22:04.970Z,0
2017-08-16T02:22:45.396Z,0
2017-08-16T02:23:25.866Z,0
2017-08-16T02:24:06.302Z,0
2017-08-16T02:24:46.690Z,0
2017-08-16T02:25:27.041Z,0
2017-08-16T02:26:07.543Z,0
2017-08-16T02:26:47.791Z,0
2017-08-16T02:27:28.272Z,0
2017-08-16T02:28:08.994Z,0
2017-08-16T02:28:49.297Z,0
2017-08-16T02:29:29.676Z,0
2017-08-16T02:30:10.284Z,0
2017-08-16T02:30:50.676Z,0
2017-08-16T02:31:31.120Z,0
2017-08-16T02:32:11.539Z,0
2017-08-16T02:32:51.994Z,0
2017-08-16T02:33:32.453Z,0
2017-08-16T02:34:12.806Z,0
2017-08-16T02:34:53.190Z,0
2017-08-16T02:35:33.657Z,0
2017-08-16T02:36:14.123Z,0
2017-08-16T02:36:54.517Z,0
2017-08-16T02:37:34.988Z,0
2017-08-16T02:38:15.375Z,0
2017-08-16T02:38:55.791Z,0
2017-08-16T02:39:36.264Z,0
2017-08-16T02:40:16.716Z,0
2017-08-16T02:40:57.876Z,0
2017-08-16T02:41:38.237Z,0
2017-08-16T02:42:18.659Z,0
2017-08-16T02:42:59.007Z,0
2017-08-16T02:43:39.641Z,0
2017-08-16T02:44:20.138Z,0
2017-08-16T02:45:00.506Z,0
2017-08-16T02:45:41.006Z,0
2017-08-16T02:46:21.400Z,0
2017-08-16T02:47:01.816Z,0
2017-08-16T02:47:42.266Z,0
2017-08-16T02:48:22.739Z,0
2017-08-16T02:49:03.099Z,0
2017-08-16T02:49:43.533Z,0
2017-08-16T02:50:23.901Z,0
2017-08-16T02:51:04.290Z,0
2017-08-16T02:51:44.650Z,0
2017-08-16T02:52:25.164Z,0
2017-08-16T02:53:05.586Z,0
2017-08-16T02:53:46.001Z,0
2017-08-16T02:54:26.418Z,0
2017-08-16T02:55:07.081Z,0
2017-08-16T02:55:47.392Z,0
2017-08-16T02:56:27.774Z,0
2017-08-16T02:57:08.119Z,0
2017-08-16T02:57:48.575Z,0
2017-08-16T02:58:28.967Z,0
2017-08-16T02:59:09.354Z,0
2017-08-16T02:59:49.711Z,0
2017-08-16T03:00:30.108Z,0
2017-08-16T03:01:10.490Z,0
2017-08-16T03:01:50.936Z,0
2017-08-16T03:02:31.389Z,0
2017-08-16T03:03:11.739Z,0
2017-08-16T03:03:52.200Z,0
2017-08-16T03:04:32.683Z,0
2017-08-16T03:05:13.058Z,0
2017-08-16T03:05:53.595Z,0
2017-08-16T03:06:33.934Z,0
2017-08-16T03:07:14.477Z,0
2017-08-16T03:07:54.868Z,0
2017-08-16T03:08:35.416Z,0
2017-08-16T03:09:15.885Z,0
2017-08-16T03:09:56.305Z,0
2017-08-16T03:10:36.698Z,0
2017-08-16T03:11:17.444Z,0
2017-08-16T03:11:58.294Z,0
2017-08-16T03:12:39.782Z,0
2017-08-16T03:13:22.587Z,0
2017-08-16T03:14:02.979Z,0
2017-08-16T03:14:52.072Z,0
2017-08-16T03:15:33.100Z,0
2017-08-16T03:16:13.418Z,0
2017-08-16T03:16:53.851Z,0
2017-08-16T03:17:34.205Z,0
2017-08-16T03:18:14.629Z,0
2017-08-16T03:18:54.967Z,0
2017-08-16T03:19:35.402Z,0
2017-08-16T03:20:15.792Z,0
2017-08-16T03:20:56.238Z,0
2017-08-16T03:21:36.613Z,0
2017-08-16T03:22:16.972Z,0
2017-08-16T03:22:57.344Z,0
2017-08-16T03:23:37.798Z,0
2017-08-16T03:24:18.225Z,0
2017-08-16T03:24:58.581Z,0
2017-08-16T03:25:38.944Z,0
2017-08-16T03:26:19.442Z,0
2017-08-16T03:26:59.811Z,0
2017-08-16T03:27:40.239Z,0
2017-08-16T03:28:20.610Z,0
2017-08-16T03:29:01.039Z,0
2017-08-16T03:29:41.443Z,0
2017-08-16T03:30:21.855Z,0
2017-08-16T03:31:02.253Z,0
2017-08-16T03:31:42.725Z,0
2017-08-16T03:32:23.082Z,0
2017-08-16T03:33:03.502Z,0
2017-08-16T03:33:43.913Z,0
2017-08-16T03:34:24.361Z,0
2017-08-16T03:35:04.799Z,0
2017-08-16T03:35:45.212Z,0
2017-08-16T03:36:25.629Z,0
2017-08-16T03:37:05.982Z,0
2017-08-16T03:37:46.375Z,0
2017-08-16T03:38:26.828Z,0
2017-08-16T03:39:07.238Z,0
2017-08-16T03:39:47.618Z,0
2017-08-16T03:40:28.048Z,0
2017-08-16T03:41:08.486Z,0
2017-08-16T03:41:48.868Z,0
2017-08-16T03:42:29.336Z,0
2017-08-16T03:43:09.758Z,0
2017-08-16T03:43:50.297Z,0
2017-08-16T03:44:30.648Z,0
2017-08-16T03:45:11.083Z,0
2017-08-16T03:45:51.484Z,0
2017-08-16T03:46:31.929Z,0
2017-08-16T03:47:12.302Z,0
2017-08-16T03:47:52.666Z,0
2017-08-16T03:48:33.181Z,0
2017-08-16T03:49:13.591Z,0
2017-08-16T03:49:54.120Z,0
2017-08-16T03:50:34.383Z,0
2017-08-16T03:51:14.885Z,0
2017-08-16T03:51:55.338Z,0
2017-08-16T03:52:35.757Z,0
2017-08-16T03:53:16.180Z,0
2017-08-16T03:53:56.772Z,0
2017-08-16T03:54:37.104Z,0
2017-08-16T03:55:17.530Z,0
2017-08-16T03:55:57.934Z,0
2017-08-16T03:56:38.374Z,0
2017-08-16T03:57:18.860Z,0
2017-08-16T03:57:59.277Z,0
2017-08-16T03:58:39.886Z,0
2017-08-16T03:59:21.028Z,0
2017-08-16T04:00:01.563Z,0
2017-08-16T04:00:41.979Z,0
2017-08-16T04:01:22.372Z,0
2017-08-16T04:02:02.709Z,0
2017-08-16T04:02:43.137Z,0
2017-08-16T04:03:23.603Z,0
2017-08-16T04:04:03.993Z,0
2017-08-16T04:04:44.403Z,0
2017-08-16T04:05:24.778Z,0
2017-08-16T04:06:05.210Z,0
2017-08-16T04:06:45.573Z,0
2017-08-16T04:07:26.219Z,0
2017-08-16T04:08:06.782Z,0
2017-08-16T04:08:47.186Z,0
2017-08-16T04:09:27.535Z,0
2017-08-16T04:10:07.927Z,0
2017-08-16T04:10:48.422Z,0
2017-08-16T04:11:28.818Z,0
2017-08-16T04:12:09.188Z,0
2017-08-16T04:12:49.551Z,0
2017-08-16T04:13:29.945Z,0
2017-08-16T04:14:10.399Z,0
2017-08-16T04:14:50.774Z,0
2017-08-16T04:15:31.115Z,0
2017-08-16T04:16:11.666Z,0
2017-08-16T04:16:52.065Z,0
2017-08-16T04:17:32.423Z,0
2017-08-16T04:18:12.803Z,0
2017-08-16T04:18:53.190Z,0
2017-08-16T04:19:33.619Z,0
2017-08-16T04:20:14.041Z,0
2017-08-16T04:20:54.421Z,5
2017-08-16T04:21:34.850Z,5
2017-08-16T04:22:15.231Z,5
2017-08-16T04:22:55.627Z,5
2017-08-16T04:23:36.029Z,5
2017-08-16T04:24:16.410Z,5
2017-08-16T04:24:56.820Z,5
2017-08-16T04:25:37.141Z,5
2017-08-16T04:26:17.723Z,5
2017-08-16T04:26:58.068Z,5
2017-08-16T04:27:38.507Z,5
2017-08-16T04:28:18.844Z,5
2017-08-16T04:28:59.297Z,5
2017-08-16T04:29:39.781Z,5
2017-08-16T04:30:20.208Z,10
2017-08-16T04:31:00.683Z,10
2017-08-16T04:31:41.037Z,10
2017-08-16T04:32:21.546Z,10
2017-08-16T04:33:01.938Z,10
2017-08-16T04:33:42.322Z,10
2017-08-16T04:34:22.715Z,10
2017-08-16T04:35:03.130Z,10
2017-08-16T04:35:43.582Z,10
2017-08-16T04:36:23.938Z,15
2017-08-16T04:37:04.385Z,15
2017-08-16T04:37:44.757Z,15
2017-08-16T04:38:25.128Z,15
2017-08-16T04:39:05.655Z,15
2017-08-16T04:39:46.090Z,15
2017-08-16T04:40:26.553Z,15
2017-08-16T04:41:06.980Z,20
2017-08-16T04:41:47.316Z,20
2017-08-16T04:42:27.762Z,20
2017-08-16T04:43:08.170Z,20
2017-08-16T04:43:48.687Z,20
2017-08-16T04:44:29.134Z,20
2017-08-16T04:45:09.589Z,20
2017-08-16T04:45:49.899Z,25
2017-08-16T04:46:30.363Z,25
2017-08-16T04:47:10.780Z,25
2017-08-16T04:47:51.241Z,25
2017-08-16T04:48:32.194Z,25
2017-08-16T04:49:12.051Z,25
2017-08-16T04:49:52.492Z,25
2017-08-16T04:50:32.875Z,30
2017-08-16T04:51:13.316Z,30
2017-08-16T04:51:53.680Z,30
2017-08-16T04:52:34.072Z,30
2017-08-16T04:53:14.535Z,30
2017-08-16T04:53:54.919Z,35
2017-08-16T04:54:35.394Z,35
2017-08-16T04:55:15.716Z,35
2017-08-16T04:55:56.120Z,35
2017-08-16T04:56:36.505Z,35
2017-08-16T04:57:17.059Z,35
2017-08-16T04:57:57.544Z,35
2017-08-16T04:58:37.827Z,40
2017-08-16T04:59:18.338Z,40
2017-08-16T04:59:58.832Z,40
2017-08-16T05:00:39.168Z,45
2017-08-16T05:01:19.695Z,45
2017-08-16T05:02:00.171Z,50
2017-08-16T05:02:40.580Z,50
2017-08-16T05:03:21.088Z,55
2017-08-16T05:04:01.508Z,60
2017-08-16T05:04:41.946Z,65
2017-08-16T05:05:22.267Z,70
2017-08-16T05:06:02.696Z,70
2017-08-16T05:06:43.171Z,75
2017-08-16T05:07:23.742Z,75
2017-08-16T05:08:04.207Z,75
2017-08-16T05:08:44.681Z,70
2017-08-16T05:09:25.033Z,70
2017-08-16T05:10:05.527Z,70
2017-08-16T05:10:45.880Z,75
2017-08-16T05:11:26.367Z,75
2017-08-16T05:12:06.689Z,75
2017-08-16T05:12:47.129Z,70
2017-08-16T05:13:27.502Z,70
2017-08-16T05:14:07.990Z,70
2017-08-16T05:14:48.364Z,70
2017-08-16T05:15:28.736Z,70
2017-08-16T05:16:09.189Z,70
2017-08-16T05:16:49.652Z,70
2017-08-16T05:17:30.006Z,75
2017-08-16T05:18:10.498Z,75
2017-08-16T05:18:50.877Z,75
2017-08-16T05:19:31.298Z,75
2017-08-16T05:20:11.661Z,75
2017-08-16T05:20:52.118Z,80
2017-08-16T05:21:32.638Z,80
2017-08-16T05:22:13.055Z,85
2017-08-16T05:22:53.429Z,85
2017-08-16T05:23:33.898Z,85
2017-08-16T05:24:15.222Z,80
2017-08-16T05:24:56.219Z,80
2017-08-16T05:25:37.228Z,80
2017-08-16T05:26:17.010Z,80
2017-08-16T05:26:57.503Z,80
2017-08-16T05:27:37.960Z,85
2017-08-16T05:28:18.373Z,85
2017-08-16T05:28:58.783Z,85
2017-08-16T05:29:39.194Z,85
2017-08-16T05:30:19.608Z,85
2017-08-16T05:31:00.040Z,85
2017-08-16T05:31:40.433Z,85
2017-08-16T05:32:20.916Z,85
2017-08-16T05:33:01.285Z,85
2017-08-16T05:33:41.759Z,90
2017-08-16T05:34:22.066Z,95
2017-08-16T05:35:02.650Z,100
2017-08-16T05:35:43.083Z,100
2017-08-16T05:36:23.498Z,100
2017-08-16T05:37:03.966Z,105
2017-08-16T05:37:44.401Z,105
2017-08-16T05:38:25.690Z,105
2017-08-16T05:39:06.114Z,105
2017-08-16T05:39:46.498Z,105
2017-08-16T05:40:26.877Z,100
2017-08-16T05:41:07.328Z,100
2017-08-16T05:41:47.751Z,100
2017-08-16T05:42:28.165Z,100
2017-08-16T05:43:08.529Z,100
2017-08-16T05:43:48.880Z,95
2017-08-16T05:44:29.270Z,95
2017-08-16T05:45:09.735Z,95
2017-08-16T05:45:50.208Z,95
2017-08-16T05:46:30.559Z,90
2017-08-16T05:47:10.925Z,90
2017-08-16T05:47:51.454Z,90
2017-08-16T05:48:31.892Z,90
2017-08-16T05:49:12.270Z,90
2017-08-16T05:49:52.690Z,90
2017-08-16T05:50:33.101Z,95
2017-08-16T05:51:13.490Z,95
2017-08-16T05:51:53.986Z,100
2017-08-16T05:52:34.389Z,100
2017-08-16T05:53:14.793Z,105
2017-08-16T05:53:55.261Z,105
2017-08-16T05:54:35.729Z,105
2017-08-16T05:55:16.029Z,110
2017-08-16T05:55:56.514Z,115
2017-08-16T05:56:36.902Z,115
2017-08-16T05:57:17.420Z,120
2017-08-16T05:57:57.862Z,120
2017-08-16T05:58:38.283Z,120
2017-08-16T05:59:18.828Z,120
2017-08-16T05:59:59.168Z,120
2017-08-16T06:00:39.628Z,120
2017-08-16T06:01:20.563Z,125
2017-08-16T06:02:01.091Z,130
2017-08-16T06:02:41.518Z,135
2017-08-16T06:03:21.921Z,140
2017-08-16T06:04:02.411Z,140
2017-08-16T06:04:42.897Z,140
2017-08-16T06:05:23.447Z,140
2017-08-16T06:06:03.911Z,140
2017-08-16T06:06:44.719Z,135
2017-08-16T06:07:25.123Z,135
2017-08-16T06:08:05.541Z,130
2017-08-16T06:08:45.942Z,125
2017-08-16T06:09:26.332Z,125
2017-08-16T06:10:06.856Z,120
2017-08-16T06:10:47.316Z,120
2017-08-16T06:11:27.621Z,115
2017-08-16T06:12:08.186Z,110
2017-08-16T06:12:49.005Z,100
2017-08-16T06:13:29.969Z,95
2017-08-16T06:14:10.446Z,95
2017-08-16T06:14:51.058Z,95
2017-08-16T06:15:31.498Z,95
2017-08-16T06:16:11.876Z,90
2017-08-16T06:16:53.158Z,90
2017-08-16T06:17:33.632Z,90
2017-08-16T06:18:14.073Z,95
2017-08-16T06:18:54.445Z,95
2017-08-16T06:19:34.993Z,95
2017-08-16T06:20:15.436Z,95
2017-08-16T06:20:56.052Z,95
2017-08-16T06:21:36.539Z,100
2017-08-16T06:22:16.945Z,100
2017-08-16T06:22:57.471Z,105
2017-08-16T06:23:38.029Z,110
2017-08-16T06:24:18.476Z,115
2017-08-16T06:24:58.996Z,115
2017-08-16T06:25:39.391Z,120
2017-08-16T06:26:19.809Z,125
2017-08-16T06:27:00.304Z,125
2017-08-16T06:27:40.768Z,130
2017-08-16T06:28:21.170Z,135
2017-08-16T06:29:02.046Z,135
2017-08-16T06:29:43.242Z,135
2017-08-16T06:30:23.406Z,140
2017-08-16T06:31:03.842Z,140
2017-08-16T06:31:44.229Z,135
2017-08-16T06:32:24.779Z,135
2017-08-16T06:33:05.125Z,135
2017-08-16T06:33:45.504Z,135
2017-08-16T06:34:25.968Z,140
2017-08-16T06:35:07.324Z,140
2017-08-16T06:35:47.854Z,140
2017-08-16T06:36:28.254Z,140
2017-08-16T06:37:08.609Z,140
2017-08-16T06:37:49.012Z,140
2017-08-16T06:38:29.514Z,140
2017-08-16T06:39:09.880Z,145
2017-08-16T06:39:50.346Z,145
2017-08-16T06:40:30.755Z,150
2017-08-16T06:41:11.207Z,160
2017-08-16T06:41:52.131Z,170
2017-08-16T06:42:32.698Z,180
2017-08-16T06:43:13.047Z,195
2017-08-16T06:43:53.480Z,205
2017-08-16T06:44:33.959Z,215
2017-08-16T06:45:14.421Z,225
2017-08-16T06:45:54.945Z,230
2017-08-16T06:46:36.240Z,235
2017-08-16T06:47:16.867Z,235
2017-08-16T06:47:57.345Z,240
2017-08-16T06:48:37.760Z,235
2017-08-16T06:49:18.172Z,235
2017-08-16T06:49:58.652Z,235
2017-08-16T06:50:39.107Z,235
2017-08-16T06:51:19.556Z,240
2017-08-16T06:52:00.016Z,245
2017-08-16T06:52:40.404Z,255
2017-08-16T06:53:20.910Z,265
2017-08-16T06:54:01.301Z,275
2017-08-16T06:54:41.673Z,285
2017-08-16T06:55:22.087Z,295
2017-08-16T06:56:02.589Z,300
2017-08-16T06:56:42.953Z,300
2017-08-16T06:57:23.350Z,305
2017-08-16T06:58:03.760Z,305
2017-08-16T06:58:44.146Z,310
2017-08-16T06:59:24.541Z,315
2017-08-16T07:00:06.945Z,315
2017-08-16T07:00:47.388Z,320
2017-08-16T07:01:27.783Z,320
2017-08-16T07:02:08.249Z,325
2017-08-16T07:02:48.630Z,335
2017-08-16T07:03:29.079Z,335
2017-08-16T07:04:09.664Z,345
2017-08-16T07:04:50.751Z,360
2017-08-16T07:05:31.156Z,375
2017-08-16T07:06:20.481Z,390
2017-08-16T07:10:03.328Z,490
2017-08-16T07:10:43.741Z,500
2017-08-16T07:11:24.248Z,525
2017-08-16T07:12:04.774Z,545
2017-08-16T07:12:45.559Z,570
2017-08-16T07:13:26.107Z,595
2017-08-16T07:14:06.522Z,620
2017-08-16T07:14:46.998Z,650
2017-08-16T07:15:27.344Z,675
2017-08-16T07:16:07.790Z,705
2017-08-16T07:16:48.187Z,815
2017-08-16T07:17:28.833Z,1160
2017-08-16T07:18:09.574Z,1410
2017-08-16T07:18:49.952Z,1460
2017-08-16T07:19:30.340Z,1465
2017-08-16T07:21:52.152Z,1485
2017-08-16T07:22:32.451Z,1500
2017-08-16T07:23:12.922Z,1495
2017-08-16T07:23:53.348Z,1485
2017-08-16T07:24:33.783Z,1510
2017-08-16T07:25:14.281Z,1540
2017-08-16T07:25:54.853Z,1560
2017-08-16T07:26:35.419Z,1585
2017-08-16T07:27:15.815Z,1565
2017-08-16T07:27:56.265Z,1545
2017-08-16T07:28:36.733Z,1540
2017-08-16T07:29:17.089Z,1515
2017-08-16T07:29:57.483Z,1495
2017-08-16T07:30:37.948Z,1485
2017-08-16T07:31:18.433Z,1445
2017-08-16T07:31:58.769Z,1440
2017-08-16T07:32:39.284Z,1480
2017-08-16T07:33:19.634Z,1495
2017-08-16T07:34:00.093Z,1365
2017-08-16T07:34:40.494Z,1460
2017-08-16T07:35:20.924Z,1375
2017-08-16T07:36:01.605Z,1570
2017-08-16T07:36:42.037Z,1610
2017-08-16T07:37:22.466Z,1340
2017-08-16T07:38:02.944Z,755
2017-08-16T07:38:43.325Z,720
2017-08-16T07:39:23.772Z,695
2017-08-16T07:43:23.137Z,635
2017-08-16T07:44:21.135Z,660
2017-08-16T07:45:18.152Z,810
2017-08-16T07:46:16.183Z,1305
2017-08-16T07:47:11.933Z,1490
2017-08-16T07:48:11.185Z,1550
2017-08-16T07:49:07.640Z,1610
2017-08-16T07:50:05.152Z,1725
2017-08-16T07:51:01.256Z,1825
2017-08-16T07:51:56.317Z,1955
2017-08-16T07:52:53.815Z,1885
2017-08-16T07:53:50.254Z,1800
2017-08-16T07:54:51.624Z,1850
2017-08-16T07:55:48.628Z,1770
2017-08-16T07:56:44.832Z,1730
2017-08-16T07:57:45.266Z,1780
2017-08-16T07:58:41.197Z,1805
2017-08-16T07:59:38.132Z,1835
2017-08-16T08:00:24.443Z,1875
2017-08-16T08:01:05.154Z,1820
2017-08-16T08:01:45.770Z,1810
2017-08-16T08:02:26.078Z,1780
2017-08-16T08:03:06.569Z,1770
2017-08-16T08:03:46.989Z,1745
2017-08-16T08:04:27.369Z,1785
2017-08-16T08:05:07.788Z,1860
2017-08-16T08:05:48.536Z,1885
2017-08-16T08:06:28.938Z,1840
2017-08-16T08:07:09.315Z,1850
2017-08-16T08:07:49.992Z,1895
2017-08-16T08:08:30.776Z,1905
2017-08-16T08:09:10.955Z,1865
2017-08-16T08:09:51.392Z,1945
2017-08-16T08:10:31.753Z,1965
2017-08-16T08:11:12.319Z,845
2017-08-16T08:11:52.780Z,950
2017-08-16T08:12:33.223Z,2025
2017-08-16T08:13:13.580Z,2035
2017-08-16T08:13:54.152Z,2050
2017-08-16T08:14:34.601Z,2060
2017-08-16T08:15:15.113Z,2045
2017-08-16T08:15:55.574Z,2080
2017-08-16T08:16:36.234Z,1985
2017-08-16T08:17:16.611Z,1990
2017-08-16T08:17:57.205Z,1910
2017-08-16T08:18:37.681Z,1380
2017-08-16T08:19:18.218Z,1480
2017-08-16T08:19:58.642Z,1555
2017-08-16T08:20:39.147Z,1440
2017-08-16T08:21:19.745Z,2020
2017-08-16T08:22:01.148Z,2095
2017-08-16T08:27:27.082Z,2310
2017-08-16T08:32:58.278Z,1365
2017-08-16T08:33:59.080Z,2215
2017-08-16T08:34:56.914Z,2160
2017-08-16T08:35:54.582Z,2265
2017-08-16T08:37:11.634Z,2325
2017-08-16T08:38:12.481Z,2305
2017-08-16T08:39:09.685Z,2250
2017-08-16T08:40:11.675Z,2300
2017-08-16T08:41:07.283Z,2195
2017-08-16T08:42:08.503Z,2235
2017-08-16T08:43:10.601Z,2295
2017-08-16T08:46:49.403Z,2430
2017-08-16T08:47:46.566Z,2485
2017-08-16T08:48:59.998Z,2385
2017-08-16T09:09:05.403Z,2485
2017-08-16T09:10:01.749Z,2395
2017-08-16T09:10:59.218Z,2425
2017-08-16T09:11:56.486Z,2455
2017-08-16T09:12:50.477Z,2510
2017-08-16T09:13:50.380Z,2435
2017-08-16T09:14:47.576Z,2520
2017-08-16T09:15:40.851Z,2485
2017-08-16T09:16:40.398Z,2440
2017-08-16T09:17:37.554Z,2405
2017-08-16T09:18:31.413Z,2125
2017-08-16T09:19:31.524Z,2335
2017-08-16T09:20:42.442Z,2385
2017-08-16T09:21:41.351Z,2375
2017-08-16T09:22:42.108Z,1285
2017-08-16T09:25:58.117Z,2115
2017-08-16T09:29:36.347Z,2070
2017-08-16T09:30:34.639Z,2245
2017-08-16T09:31:32.061Z,2465
2017-08-16T09:32:40.189Z,2520
2017-08-16T09:48:02.721Z,1970
2017-08-16T09:48:57.988Z,2430
2017-08-16T09:49:53.144Z,1940
2017-08-16T09:50:47.244Z,2330
2017-08-16T09:51:57.915Z,2075
2017-08-16T09:52:56.015Z,1815
2017-08-16T09:53:54.624Z,1735
2017-08-16T09:54:51.995Z,2150
2017-08-16T10:01:15.779Z,1605
2017-08-16T10:02:22.104Z,2680
2017-08-16T10:03:20.130Z,2260
2017-08-16T10:04:16.972Z,2420
2017-08-16T10:07:24.312Z,3120
2017-08-16T10:08:25.188Z,3040
2017-08-16T10:09:05.557Z,2980
2017-08-16T10:09:46.088Z,3005
2017-08-16T10:10:26.503Z,2935
2017-08-16T10:11:07.253Z,2855
2017-08-16T10:11:47.681Z,2700
2017-08-16T10:12:28.192Z,2630
2017-08-16T10:13:08.612Z,2790
2017-08-16T10:13:49.051Z,2660
2017-08-16T10:14:29.647Z,2565
2017-08-16T10:15:10.370Z,2125
2017-08-16T10:15:50.789Z,1545
2017-08-16T10:16:31.356Z,1515
2017-08-16T10:17:11.943Z,1790
2017-08-16T10:17:52.507Z,1755
2017-08-16T10:18:32.947Z,930
2017-08-16T10:19:13.480Z,880
2017-08-16T10:19:54.101Z,1175
2017-08-16T10:20:34.677Z,830
2017-08-16T10:21:15.203Z,885
2017-08-16T10:21:55.662Z,970
2017-08-16T10:22:36.225Z,1035
2017-08-16T10:23:16.664Z,1115
2017-08-16T10:23:56.955Z,2150
2017-08-16T10:24:37.485Z,1165
2017-08-16T10:25:17.924Z,1055
2017-08-16T10:25:58.361Z,1050
2017-08-16T10:26:38.752Z,1115
2017-08-16T10:27:19.213Z,1305
2017-08-16T10:27:59.649Z,2680
2017-08-16T10:28:40.197Z,2805
2017-08-16T10:29:21.030Z,3130
2017-08-16T10:30:01.666Z,3310
2017-08-16T10:30:42.024Z,3340
2017-08-16T10:31:58.755Z,3120
2017-08-16T10:36:35.644Z,1835
2017-08-16T10:37:16.049Z,1810
2017-08-16T10:37:56.449Z,1800
2017-08-16T10:38:36.840Z,1770
2017-08-16T10:39:17.298Z,1500
2017-08-16T10:39:57.797Z,1735
2017-08-16T10:40:38.297Z,1700
2017-08-16T10:41:18.723Z,1765
2017-08-16T10:41:59.109Z,1775
2017-08-16T10:42:39.606Z,1740
2017-08-16T10:43:20.117Z,1725
2017-08-16T10:44:00.662Z,1725
2017-08-16T10:44:41.178Z,1710
2017-08-16T10:45:21.644Z,1620
2017-08-16T10:46:02.097Z,975
2017-08-16T10:46:42.631Z,985
2017-08-16T10:47:23.058Z,905
2017-08-16T10:48:03.511Z,905
2017-08-16T10:48:44.056Z,960
2017-08-16T10:49:24.340Z,1010
2017-08-16T10:50:04.722Z,1600
2017-08-16T10:50:46.035Z,1780
2017-08-16T10:51:26.351Z,1745
2017-08-16T10:52:06.860Z,1710
2017-08-16T10:52:47.321Z,1720
2017-08-16T10:53:28.049Z,1765
2017-08-16T10:54:08.272Z,1790
2017-08-16T10:54:48.810Z,1765
2017-08-16T10:55:29.265Z,1780
2017-08-16T10:56:09.702Z,1690
2017-08-16T10:56:50.213Z,1765
2017-08-16T10:57:30.690Z,1800
2017-08-16T10:58:11.085Z,1785
2017-08-16T10:58:51.536Z,1805
2017-08-16T10:59:31.955Z,1895
2017-08-16T11:00:12.491Z,2020
2017-08-16T11:00:52.956Z,2060
2017-08-16T11:01:33.496Z,2035
2017-08-16T11:02:14.063Z,2010
2017-08-16T11:02:54.424Z,1965
2017-08-16T11:03:34.940Z,1920
2017-08-16T11:06:24.721Z,2085
2017-08-16T11:07:06.494Z,2015
2017-08-16T11:07:51.135Z,2010
2017-08-16T11:08:33.074Z,2090